createdAt,value
2018-05-15T00:02:14.757Z,1.50
2018-05-15T00:04:41.721Z,1.47
2018-05-15T00:07:08.454Z,1.30
2018-05-15T00:09:35.945Z,1.87
2018-05-15T00:12:02.485Z,2.00
2018-05-15T00:14:28.718Z,1.77
2018-05-15T00:16:54.956Z,1.50
2018-05-15T00:19:21.204Z,1.30
2018-05-15T00:21:47.414Z,1.40
2018-05-15T00:24:14.238Z,1.30
2018-05-15T00:26:41.196Z,1.37
2018-05-15T00:29:08.158Z,1.50
2018-05-15T00:31:34.398Z,1.70
2018-05-15T00:34:00.614Z,1.37
2018-05-15T00:36:27.654Z,1.43
2018-05-15T00:38:55.430Z,1.30
2018-05-15T00:41:22.397Z,1.40
2018-05-15T00:43:48.626Z,1.20
2018-05-15T00:46:16.390Z,1.10
2018-05-15T00:48:43.950Z,1.27
2018-05-15T00:51:11.252Z,1.23
2018-05-15T00:53:37.455Z,1.20
2018-05-15T00:56:04.392Z,1.40
2018-05-15T00:58:31.965Z,1.50
2018-05-15T01:00:59.560Z,1.47
2018-05-15T01:03:25.792Z,1.40
2018-05-15T01:05:52.005Z,1.40
2018-05-15T01:08:18.264Z,1.10
2018-05-15T01:10:44.901Z,1.60
2018-05-15T01:13:11.635Z,1.33
2018-05-15T01:15:37.840Z,1.50
2018-05-15T01:18:04.822Z,1.30
2018-05-15T01:20:31.061Z,1.30
2018-05-15T01:22:58.022Z,1.50
2018-05-15T01:25:24.637Z,1.17
2018-05-15T01:27:50.840Z,1.80
2018-05-15T01:30:17.068Z,1.50
2018-05-15T01:32:43.301Z,1.40
2018-05-15T01:35:09.505Z,1.70
2018-05-15T01:37:36.206Z,1.60
2018-05-15T01:40:03.732Z,2.63
2018-05-15T01:42:29.951Z,1.90
2018-05-15T01:44:56.556Z,1.50
2018-05-15T01:47:23.567Z,1.80
2018-05-15T01:49:50.189Z,1.30
2018-05-15T01:52:16.752Z,1.20
2018-05-15T01:54:43.370Z,1.30
2018-05-15T01:57:09.997Z,1.30
2018-05-15T01:59:36.657Z,1.20
2018-05-15T02:02:02.917Z,2.07
2018-05-15T02:04:29.149Z,2.53
2018-05-15T02:06:56.037Z,1.90
2018-05-15T02:09:22.243Z,1.70
2018-05-15T02:11:48.750Z,1.60
2018-05-15T02:14:14.961Z,1.33
2018-05-15T02:16:41.189Z,1.90
2018-05-15T02:19:07.910Z,1.30
2018-05-15T02:21:34.870Z,1.50
2018-05-15T02:24:01.117Z,1.23
2018-05-15T02:26:27.366Z,1.20
2018-05-15T02:28:53.575Z,1.23
2018-05-15T02:31:20.963Z,1.10
2018-05-15T02:33:47.174Z,1.20
2018-05-15T02:36:13.390Z,1.17
2018-05-15T02:38:41.041Z,1.50
2018-05-15T02:41:07.909Z,3.43
2018-05-15T02:43:34.871Z,2.00
2018-05-15T02:46:02.161Z,1.70
2018-05-15T02:48:29.073Z,1.80
2018-05-15T02:50:56.494Z,1.70
2018-05-15T02:53:23.481Z,1.53
2018-05-15T02:55:50.445Z,2.17
2018-05-15T02:58:17.006Z,1.60
2018-05-15T03:00:43.758Z,1.40
2018-05-15T03:03:10.005Z,1.63
2018-05-15T03:05:36.535Z,1.87
2018-05-15T03:08:02.759Z,1.70
2018-05-15T03:10:29.471Z,2.03
2018-05-15T03:12:57.049Z,1.40
2018-05-15T03:15:23.269Z,1.53
2018-05-15T03:17:50.573Z,2.07
2018-05-15T03:20:17.097Z,2.67
2018-05-15T03:22:43.309Z,2.10
2018-05-15T03:25:10.597Z,2.37
2018-05-15T03:27:37.350Z,1.87
2018-05-15T03:30:03.575Z,2.07
2018-05-15T03:32:29.803Z,1.67
2018-05-15T03:34:56.057Z,1.87
2018-05-15T03:37:22.277Z,1.50
2018-05-15T03:39:49.121Z,1.80
2018-05-15T03:42:15.807Z,3.13
2018-05-15T03:44:42.029Z,1.93
2018-05-15T03:47:08.881Z,1.60
2018-05-15T03:49:35.643Z,1.70
2018-05-15T03:52:03.834Z,1.73
2018-05-15T03:54:30.816Z,2.30
2018-05-15T03:56:57.710Z,2.20
2018-05-15T03:59:24.333Z,2.87
2018-05-15T04:02:04.542Z,2.53
2018-05-15T04:04:43.772Z,2.57
2018-05-15T04:07:23.131Z,2.30
2018-05-15T04:09:50.192Z,2.40
2018-05-15T04:12:16.401Z,3.43
2018-05-15T04:14:42.981Z,3.07
2018-05-15T04:17:09.221Z,3.50
2018-05-15T04:19:35.445Z,3.47
2018-05-15T04:22:01.718Z,2.90
2018-05-15T04:24:28.342Z,2.97
2018-05-15T04:26:54.566Z,3.17
2018-05-15T04:29:20.805Z,3.23
2018-05-15T04:31:47.037Z,4.20
2018-05-15T04:34:13.278Z,3.83
2018-05-15T04:36:39.894Z,4.50
2018-05-15T04:39:06.915Z,4.00
2018-05-15T04:41:34.209Z,3.93
2018-05-15T04:44:00.635Z,3.40
2018-05-15T04:46:26.716Z,4.30
2018-05-15T04:48:53.407Z,4.50
2018-05-15T04:51:20.230Z,6.37
2018-05-15T04:53:47.825Z,6.67
2018-05-15T04:56:14.641Z,7.57
2018-05-15T04:58:42.929Z,6.87
2018-05-15T05:01:09.494Z,8.33
2018-05-15T05:03:36.586Z,9.93
2018-05-15T05:06:02.839Z,10.13
2018-05-15T05:08:30.254Z,10.23
2018-05-15T05:10:56.896Z,10.43
2018-05-15T05:13:23.601Z,12.03
2018-05-15T05:15:51.150Z,12.80
2018-05-15T05:18:18.138Z,11.77
2018-05-15T05:20:44.817Z,11.73
2018-05-15T05:23:11.533Z,11.93
2018-05-15T05:25:38.198Z,13.73
2018-05-15T05:28:04.417Z,15.60
2018-05-15T05:30:30.666Z,12.93
2018-05-15T05:32:56.908Z,12.17
2018-05-15T05:35:24.010Z,12.87
2018-05-15T05:37:51.398Z,12.00
2018-05-15T05:40:17.638Z,12.20
2018-05-15T05:42:43.865Z,11.37
2018-05-15T05:45:10.590Z,9.60
2018-05-15T05:47:37.157Z,11.10
2018-05-15T05:50:03.969Z,11.97
2018-05-15T05:52:31.286Z,9.20
2018-05-15T05:54:57.843Z,9.37
2018-05-15T05:57:24.433Z,7.80
2018-05-15T05:59:51.097Z,7.90
2018-05-15T06:02:17.317Z,8.20
2018-05-15T06:04:44.250Z,7.53
2018-05-15T06:07:10.470Z,6.90
2018-05-15T06:09:37.942Z,6.50
2018-05-15T06:12:05.392Z,13.07
2018-05-15T06:14:32.361Z,11.73
2018-05-15T06:16:58.590Z,7.67
2018-05-15T06:19:24.830Z,6.93
2018-05-15T06:21:51.037Z,6.20
2018-05-15T06:24:18.086Z,7.00
2018-05-15T06:26:44.335Z,6.70
2018-05-15T06:29:11.295Z,6.13
2018-05-15T06:31:38.030Z,6.30
2018-05-15T06:34:05.008Z,6.30
2018-05-15T06:36:32.345Z,7.10
2018-05-15T06:39:00.011Z,7.10
2018-05-15T06:41:27.373Z,6.63
2018-05-15T06:43:54.780Z,6.30
2018-05-15T06:46:21.538Z,5.43
2018-05-15T06:48:48.150Z,6.70
2018-05-15T06:51:14.711Z,6.40
2018-05-15T06:53:40.920Z,5.40
2018-05-15T06:56:07.745Z,6.27
2018-05-15T06:58:34.704Z,6.17
2018-05-15T07:01:01.502Z,6.73
2018-05-15T07:03:27.712Z,6.20
2018-05-15T07:05:53.939Z,6.63
2018-05-15T07:08:20.652Z,6.30
2018-05-15T07:10:48.215Z,5.80
2018-05-15T07:13:15.184Z,5.97
2018-05-15T07:15:41.412Z,5.90
2018-05-15T07:18:07.692Z,5.50
2018-05-15T07:20:33.952Z,6.00
2018-05-15T07:23:00.270Z,6.00
2018-05-15T07:25:27.160Z,6.97
2018-05-15T07:27:54.127Z,6.43
2018-05-15T07:30:20.852Z,5.90
2018-05-15T07:32:48.370Z,6.17
2018-05-15T07:35:14.608Z,6.30
2018-05-15T07:37:41.269Z,6.27
2018-05-15T07:40:08.093Z,4.93
2018-05-15T07:42:34.741Z,5.27
2018-05-15T07:45:00.954Z,5.70
2018-05-15T07:47:27.664Z,5.10
2018-05-15T07:49:55.336Z,4.93
2018-05-15T07:52:22.752Z,6.20
2018-05-15T07:54:48.997Z,5.60
2018-05-15T07:57:15.936Z,6.10
2018-05-15T07:59:42.660Z,5.80
2018-05-15T08:02:08.931Z,5.03
2018-05-15T08:04:35.766Z,5.53
2018-05-15T08:07:02.000Z,5.63
2018-05-15T08:09:28.217Z,5.10
2018-05-15T08:11:54.869Z,5.60
2018-05-15T08:14:21.123Z,4.73
2018-05-15T08:16:47.347Z,5.10
2018-05-15T08:19:13.646Z,4.90
2018-05-15T08:21:40.124Z,4.60
2018-05-15T08:24:06.748Z,4.23
2018-05-15T08:26:33.652Z,4.37
2018-05-15T08:29:00.623Z,4.27
2018-05-15T08:31:27.470Z,4.40
2018-05-15T08:33:53.710Z,4.00
2018-05-15T08:36:19.943Z,4.20
2018-05-15T08:38:46.767Z,3.90
2018-05-15T08:41:13.743Z,3.87
2018-05-15T08:43:39.949Z,4.33
2018-05-15T08:46:07.522Z,4.23
2018-05-15T08:48:36.920Z,4.40
2018-05-15T08:51:04.806Z,3.40
2018-05-15T08:53:31.037Z,3.50
2018-05-15T08:55:57.263Z,3.53
2018-05-15T08:58:24.698Z,3.77
2018-05-15T09:00:50.941Z,6.40
2018-05-15T09:03:17.731Z,6.50
2018-05-15T09:05:43.965Z,9.83
2018-05-15T09:08:10.202Z,53.37
2018-05-15T09:10:36.974Z,13.70
2018-05-15T09:13:03.671Z,3.90
2018-05-15T09:15:30.628Z,2.80
2018-05-15T09:17:56.873Z,3.27
2018-05-15T09:20:23.132Z,2.50
2018-05-15T09:22:49.354Z,2.30
2018-05-15T09:25:16.069Z,1.90
2018-05-15T09:27:42.910Z,2.30
2018-05-15T09:30:09.877Z,2.07
2018-05-15T09:32:36.097Z,1.83
2018-05-15T09:35:03.102Z,2.00
2018-05-15T09:37:29.905Z,2.03
2018-05-15T09:39:56.846Z,2.10
2018-05-15T09:42:23.823Z,2.00
2018-05-15T09:44:50.081Z,2.23
2018-05-15T09:47:16.881Z,2.23
2018-05-15T09:49:44.445Z,1.93
2018-05-15T09:52:12.755Z,2.20
2018-05-15T09:54:39.676Z,2.00
2018-05-15T09:57:07.134Z,2.37
2018-05-15T09:59:34.448Z,2.10
2018-05-15T10:02:00.684Z,2.40
2018-05-15T10:04:26.897Z,2.97
2018-05-15T10:06:53.125Z,2.63
2018-05-15T10:09:19.341Z,2.90
2018-05-15T10:11:45.935Z,2.70
2018-05-15T10:14:12.177Z,3.10
2018-05-15T10:16:38.399Z,2.73
2018-05-15T10:19:04.642Z,2.77
2018-05-15T10:21:31.238Z,2.97
2018-05-15T10:23:57.898Z,2.80
2018-05-15T10:26:24.595Z,2.87
2018-05-15T10:28:51.460Z,2.87
2018-05-15T10:31:18.424Z,3.33
2018-05-15T10:33:45.148Z,3.53
2018-05-15T10:36:12.109Z,2.73
2018-05-15T10:38:38.742Z,2.87
2018-05-15T10:41:05.732Z,2.80
2018-05-15T10:43:31.975Z,2.70
2018-05-15T10:45:58.652Z,2.80
2018-05-15T10:48:25.270Z,2.60
2018-05-15T10:50:52.176Z,2.67
2018-05-15T10:53:18.919Z,2.90
2018-05-15T10:55:45.922Z,3.57
2018-05-15T10:58:12.522Z,3.67
2018-05-15T11:00:38.753Z,3.70
2018-05-15T11:03:04.976Z,3.50
2018-05-15T11:05:33.712Z,4.40
2018-05-15T11:08:00.642Z,3.93
2018-05-15T11:10:27.476Z,3.97
2018-05-15T11:12:53.710Z,4.27
2018-05-15T11:15:19.959Z,4.67
2018-05-15T11:17:46.950Z,4.30
2018-05-15T11:20:39.953Z,4.60
2018-05-15T11:23:19.897Z,4.23
2018-05-15T11:25:46.130Z,5.10
2018-05-15T11:28:12.828Z,4.60
2018-05-15T11:30:39.118Z,4.60
2018-05-15T11:33:06.040Z,4.40
2018-05-15T11:35:33.083Z,5.13
2018-05-15T11:37:59.290Z,4.90
2018-05-15T11:40:25.574Z,4.70
2018-05-15T11:42:52.168Z,4.60
2018-05-15T11:45:18.963Z,4.50
2018-05-15T11:47:45.873Z,6.00
2018-05-15T11:50:13.155Z,5.20
2018-05-15T11:52:39.769Z,5.00
2018-05-15T11:55:05.940Z,5.17
2018-05-15T11:57:33.610Z,5.10
2018-05-15T11:59:59.921Z,4.63
2018-05-15T12:02:26.687Z,3.67
2018-05-15T12:04:52.942Z,5.00
2018-05-15T12:07:19.197Z,4.70
2018-05-15T12:09:45.447Z,5.30
2018-05-15T12:12:12.084Z,6.03
2018-05-15T12:14:38.324Z,6.60
2018-05-15T12:17:05.416Z,8.90
2018-05-15T12:19:32.376Z,7.13
2018-05-15T12:21:59.870Z,5.67
2018-05-15T12:24:26.102Z,5.03
2018-05-15T12:26:52.823Z,5.00
2018-05-15T12:29:19.090Z,5.03
2018-05-15T12:31:45.310Z,4.73
2018-05-15T12:34:12.960Z,4.70
2018-05-15T12:36:39.190Z,4.80
2018-05-15T12:39:05.924Z,4.57
2018-05-15T12:41:33.374Z,5.07
2018-05-15T12:44:00.378Z,5.00
2018-05-15T12:46:27.097Z,5.40
2018-05-15T12:48:54.374Z,5.33
2018-05-15T12:51:21.084Z,5.80
2018-05-15T12:53:48.721Z,5.40
2018-05-15T12:56:15.509Z,5.43
2018-05-15T12:58:42.164Z,5.07
2018-05-15T13:01:08.391Z,4.67
2018-05-15T13:03:34.630Z,5.80
2018-05-15T13:06:00.868Z,5.70
2018-05-15T13:08:27.078Z,5.33
2018-05-15T13:10:54.398Z,5.37
2018-05-15T13:13:21.015Z,5.20
2018-05-15T13:15:47.729Z,6.07
2018-05-15T13:18:15.142Z,4.93
2018-05-15T13:20:42.271Z,5.20
2018-05-15T13:23:09.341Z,5.27
2018-05-15T13:25:36.456Z,5.67
2018-05-15T13:28:02.686Z,5.50
2018-05-15T13:30:29.649Z,5.23
2018-05-15T13:32:56.260Z,5.07
2018-05-15T13:35:22.590Z,5.43
2018-05-15T13:37:49.217Z,5.00
2018-05-15T13:40:15.841Z,5.63
2018-05-15T13:42:42.384Z,5.10
2018-05-15T13:45:09.031Z,5.13
2018-05-15T13:47:35.742Z,4.80
2018-05-15T13:50:02.490Z,5.40
2018-05-15T13:52:29.121Z,4.77
2018-05-15T13:54:56.097Z,5.40
2018-05-15T13:57:22.817Z,4.70
2018-05-15T13:59:49.774Z,4.60
2018-05-15T14:02:16.006Z,4.57
2018-05-15T14:04:43.001Z,4.53
2018-05-15T14:07:11.032Z,4.90
2018-05-15T14:09:37.265Z,5.03
2018-05-15T14:12:04.686Z,5.60
2018-05-15T14:14:30.910Z,5.80
2018-05-15T14:16:57.433Z,5.43
2018-05-15T14:19:23.650Z,5.83
2018-05-15T14:21:49.871Z,5.70
2018-05-15T14:24:16.718Z,5.10
2018-05-15T14:26:42.942Z,5.80
2018-05-15T14:29:09.893Z,5.63
2018-05-15T14:31:36.884Z,6.17
2018-05-15T14:34:03.097Z,5.00
2018-05-15T14:36:29.940Z,5.23
2018-05-15T14:38:57.038Z,4.67
2018-05-15T14:41:35.597Z,5.13
2018-05-15T14:44:02.894Z,4.90
2018-05-15T14:46:29.430Z,5.03
2018-05-15T14:48:56.073Z,5.50
2018-05-15T14:51:26.518Z,5.63
2018-05-15T14:53:53.793Z,5.97
2018-05-15T14:56:21.134Z,6.20
2018-05-15T14:58:47.838Z,6.40
2018-05-15T15:01:14.814Z,6.47
2018-05-15T15:03:41.507Z,5.53
2018-05-15T15:06:08.116Z,6.30
2018-05-15T15:08:34.376Z,6.73
2018-05-15T15:11:01.149Z,6.67
2018-05-15T15:13:29.640Z,6.20
2018-05-15T15:15:56.613Z,6.10
2018-05-15T15:18:22.856Z,6.13
2018-05-15T15:20:49.094Z,5.53
2018-05-15T15:23:15.817Z,6.60
2018-05-15T15:25:42.037Z,5.73
2018-05-15T15:28:09.017Z,4.33
2018-05-15T15:30:35.254Z,3.40
2018-05-15T15:33:01.910Z,5.20
2018-05-15T15:35:28.579Z,9.57
2018-05-15T15:37:54.813Z,4.07
2018-05-15T15:40:21.645Z,2.63
2018-05-15T15:42:48.289Z,2.70
2018-05-15T15:45:15.167Z,3.00
2018-05-15T15:47:42.619Z,2.20
2018-05-15T15:50:09.241Z,2.10
2018-05-15T15:52:35.907Z,2.10
2018-05-15T15:55:02.327Z,2.23
2018-05-15T15:57:29.241Z,3.40
2018-05-15T15:59:55.810Z,3.90
2018-05-15T16:02:22.073Z,4.00
2018-05-15T16:04:48.318Z,3.57
2018-05-15T16:07:14.582Z,3.93
2018-05-15T16:09:41.237Z,3.93
2018-05-15T16:12:07.821Z,3.63
2018-05-15T16:14:34.039Z,3.70
2018-05-15T16:17:00.261Z,3.27
2018-05-15T16:19:28.398Z,3.30
2018-05-15T16:21:54.536Z,2.77
2018-05-15T16:24:21.511Z,2.90
2018-05-15T16:26:47.815Z,3.00
2018-05-15T16:29:14.801Z,2.30
2018-05-15T16:31:41.924Z,4.37
2018-05-15T16:34:09.303Z,3.70
2018-05-15T16:36:35.544Z,3.40
2018-05-15T16:39:02.369Z,2.90
2018-05-15T16:41:29.341Z,3.00
2018-05-15T16:43:56.217Z,2.80
2018-05-15T16:46:23.125Z,3.40
2018-05-15T16:48:50.069Z,3.37
2018-05-15T16:51:17.503Z,3.03
2018-05-15T16:53:43.728Z,4.40
2018-05-15T16:56:10.653Z,2.87
2018-05-15T16:58:37.447Z,4.80
2018-05-15T17:01:04.437Z,5.10
2018-05-15T17:03:30.664Z,6.30
2018-05-15T17:05:57.359Z,5.90
2018-05-15T17:08:24.459Z,4.53
2018-05-15T17:10:51.098Z,5.63
2018-05-15T17:13:17.795Z,5.13
2018-05-15T17:15:44.017Z,5.77
2018-05-15T17:18:10.646Z,6.50
2018-05-15T17:20:36.879Z,5.20
2018-05-15T17:23:03.129Z,4.80
2018-05-15T17:25:29.423Z,4.87
2018-05-15T17:27:56.390Z,3.13
2018-05-15T17:30:23.136Z,7.73
2018-05-15T17:32:50.213Z,10.93
2018-05-15T17:35:17.800Z,17.20
2018-05-15T17:37:44.183Z,18.67
2018-05-15T17:40:10.512Z,17.20
2018-05-15T17:42:37.519Z,14.47
2018-05-15T17:45:04.330Z,11.30
2018-05-15T17:47:31.825Z,13.40
2018-05-15T17:50:00.172Z,8.23
2018-05-15T17:52:26.948Z,41.30
2018-05-15T17:54:53.352Z,35.70
2018-05-15T17:57:19.928Z,24.30
2018-05-15T17:59:46.589Z,22.80
2018-05-15T18:02:12.824Z,9.43
2018-05-15T18:04:39.487Z,22.47
2018-05-15T18:07:06.893Z,20.33
2018-05-15T18:09:33.799Z,9.83
2018-05-15T18:12:01.427Z,6.70
2018-05-15T18:14:28.180Z,3.90
2018-05-15T18:16:54.402Z,3.23
2018-05-15T18:19:20.623Z,3.00
2018-05-15T18:21:47.382Z,3.70
2018-05-15T18:24:13.638Z,5.50
2018-05-15T18:26:40.304Z,4.73
2018-05-15T18:29:07.277Z,4.97
2018-05-15T18:31:33.509Z,4.80
2018-05-15T18:34:00.230Z,4.30
2018-05-15T18:36:27.204Z,3.47
2018-05-15T18:38:53.890Z,3.00
2018-05-15T18:41:20.124Z,4.13
2018-05-15T18:43:46.424Z,4.33
2018-05-15T18:46:13.119Z,4.00
2018-05-15T18:48:40.049Z,3.53
2018-05-15T18:51:06.840Z,3.47
2018-05-15T18:53:33.837Z,3.90
2018-05-15T18:56:00.070Z,4.57
2018-05-15T18:58:26.710Z,4.33
2018-05-15T19:00:53.314Z,3.30
2018-05-15T19:03:22.133Z,3.70
2018-05-15T19:05:49.181Z,3.93
2018-05-15T19:08:15.836Z,5.60
2018-05-15T19:10:42.221Z,6.27
2018-05-15T19:13:09.573Z,5.57
2018-05-15T19:15:35.913Z,4.40
2018-05-15T19:18:03.809Z,3.77
2018-05-15T19:20:30.774Z,5.23
2018-05-15T19:22:57.009Z,5.30
2018-05-15T19:25:23.597Z,6.30
2018-05-15T19:27:49.816Z,7.13
2018-05-15T19:30:16.493Z,6.57
2018-05-15T19:32:43.679Z,5.80
2018-05-15T19:35:10.098Z,4.27
2018-05-15T19:37:36.861Z,3.90
2018-05-15T19:40:09.264Z,3.97
2018-05-15T19:42:35.509Z,3.37
2018-05-15T19:45:02.483Z,3.83
2018-05-15T19:47:29.179Z,4.97
2018-05-15T19:49:56.318Z,5.07
2018-05-15T19:52:23.762Z,4.50
2018-05-15T19:54:50.726Z,4.07
2018-05-15T19:57:18.161Z,4.60
2018-05-15T19:59:44.677Z,4.80
2018-05-15T20:02:11.814Z,4.60
2018-05-15T20:04:38.037Z,4.50
2018-05-15T20:07:04.262Z,3.47
2018-05-15T20:09:30.817Z,3.00
2018-05-15T20:11:57.449Z,4.00
2018-05-15T20:14:23.670Z,3.20
2018-05-15T20:16:49.905Z,2.57
2018-05-15T20:19:17.039Z,3.47
2018-05-15T20:21:43.740Z,3.30
2018-05-15T20:24:09.977Z,3.30
2018-05-15T20:26:36.190Z,4.30
2018-05-15T20:29:03.018Z,4.73
2018-05-15T20:31:29.165Z,5.53
2018-05-15T20:33:55.787Z,4.60
2018-05-15T20:36:22.750Z,5.30
2018-05-15T20:38:49.713Z,5.53
2018-05-15T20:41:15.972Z,5.50
2018-05-15T20:43:42.197Z,4.23
2018-05-15T20:46:09.023Z,4.33
2018-05-15T20:48:35.849Z,3.90
2018-05-15T20:51:03.449Z,3.47
2018-05-15T20:53:29.702Z,2.90
2018-05-15T20:55:56.611Z,3.50
2018-05-15T20:58:23.926Z,4.77
2018-05-15T21:00:50.542Z,4.27
2018-05-15T21:03:16.767Z,3.50
2018-05-15T21:05:43.793Z,4.30
2018-05-15T21:08:10.758Z,8.50
2018-05-15T21:10:36.982Z,6.83
2018-05-15T21:13:04.465Z,6.43
2018-05-15T21:15:30.695Z,5.57
2018-05-15T21:17:56.933Z,4.40
2018-05-15T21:20:23.631Z,5.10
2018-05-15T21:22:49.840Z,7.60
2018-05-15T21:25:17.758Z,8.63
2018-05-15T21:27:44.722Z,4.53
2018-05-15T21:30:10.935Z,4.50
2018-05-15T21:32:38.545Z,4.13
2018-05-15T21:35:04.797Z,4.07
2018-05-15T21:37:31.014Z,3.70
2018-05-15T21:39:57.251Z,2.93
2018-05-15T21:42:23.471Z,3.10
2018-05-15T21:44:50.237Z,3.47
2018-05-15T21:47:16.844Z,4.00
2018-05-15T21:49:43.787Z,2.80
2018-05-15T21:52:10.561Z,2.60
2018-05-15T21:54:37.089Z,2.43
2018-05-15T21:57:03.757Z,3.07
2018-05-15T21:59:30.430Z,4.03
2018-05-15T22:01:56.639Z,3.80
2018-05-15T22:04:22.850Z,3.43
2018-05-15T22:06:49.098Z,2.90
2018-05-15T22:09:15.421Z,5.67
2018-05-15T22:11:55.649Z,6.10
2018-05-15T22:14:35.089Z,4.90
2018-05-15T22:17:14.704Z,6.60
2018-05-15T22:19:53.371Z,7.73
2018-05-15T22:22:19.429Z,6.50
2018-05-15T22:24:46.321Z,5.37
2018-05-15T22:27:13.275Z,4.60
2018-05-15T22:29:40.630Z,4.30
2018-05-15T22:32:07.601Z,3.27
2018-05-15T22:34:34.333Z,3.10
2018-05-15T22:37:01.313Z,3.50
2018-05-15T22:39:27.526Z,3.60
2018-05-15T22:41:53.781Z,2.70
2018-05-15T22:44:20.543Z,3.10
2018-05-15T22:46:47.241Z,3.23
2018-05-15T22:49:14.664Z,4.07
2018-05-15T22:51:41.339Z,4.13
2018-05-15T22:54:09.210Z,4.43
2018-05-15T22:56:36.783Z,3.47
2018-05-15T22:59:03.750Z,4.30
2018-05-15T23:01:30.327Z,4.07
2018-05-15T23:03:57.047Z,3.90
2018-05-15T23:06:23.277Z,4.70
2018-05-15T23:08:49.494Z,5.10
2018-05-15T23:11:16.990Z,3.90
2018-05-15T23:13:43.207Z,4.10
2018-05-15T23:16:09.897Z,4.40
2018-05-15T23:18:36.113Z,4.20
2018-05-15T23:21:02.848Z,3.53
2018-05-15T23:23:29.071Z,4.10
2018-05-15T23:25:55.285Z,4.20
2018-05-15T23:28:22.166Z,5.00
2018-05-15T23:30:49.129Z,5.23
2018-05-15T23:33:15.830Z,4.90
2018-05-15T23:35:42.047Z,3.40
2018-05-15T23:38:09.013Z,3.10
2018-05-15T23:40:35.238Z,3.33
2018-05-15T23:43:02.207Z,3.50
2018-05-15T23:45:28.836Z,2.80
2018-05-15T23:47:55.680Z,4.20
2018-05-15T23:50:23.100Z,4.87
2018-05-15T23:52:49.693Z,4.27
2018-05-15T23:55:15.911Z,4.00
2018-05-15T23:57:43.953Z,3.07
